createdAt,value
2019-04-07T00:01:25.451Z,89.10
2019-04-07T00:03:53.951Z,89.25
2019-04-07T00:06:22.501Z,89.20
2019-04-07T00:08:50.965Z,89.23
2019-04-07T00:11:19.560Z,89.26
2019-04-07T00:13:48.155Z,89.40
2019-04-07T00:16:16.950Z,89.31
2019-04-07T00:18:45.487Z,89.40
2019-04-07T00:21:13.964Z,89.49
2019-04-07T00:23:42.995Z,89.38
2019-04-07T00:26:11.465Z,89.63
2019-04-07T00:28:39.856Z,89.64
2019-04-07T00:31:08.446Z,89.67
2019-04-07T00:33:36.872Z,89.93
2019-04-07T00:36:05.253Z,90.11
2019-04-07T00:38:33.668Z,90.19
2019-04-07T00:41:02.368Z,90.17
2019-04-07T00:43:30.782Z,90.13
2019-04-07T00:45:59.277Z,90.15
2019-04-07T00:48:27.701Z,90.14
2019-04-07T00:50:56.128Z,90.08
2019-04-07T00:53:24.525Z,90.05
2019-04-07T00:55:52.958Z,89.89
2019-04-07T00:58:21.500Z,89.86
2019-04-07T01:00:50.538Z,89.84
2019-04-07T01:03:19.491Z,89.74
2019-04-07T01:05:48.011Z,89.69
2019-04-07T01:08:17.111Z,89.69
2019-04-07T01:10:45.857Z,89.77
2019-04-07T01:13:14.510Z,89.65
2019-04-07T01:15:43.495Z,89.75
2019-04-07T01:18:12.005Z,89.55
2019-04-07T01:20:40.406Z,89.72
2019-04-07T01:23:08.908Z,89.66
2019-04-07T01:25:37.895Z,89.65
2019-04-07T01:28:06.671Z,89.67
2019-04-07T01:30:35.507Z,89.66
2019-04-07T01:33:04.083Z,89.59
2019-04-07T01:35:32.970Z,89.58
2019-04-07T01:38:01.599Z,89.66
2019-04-07T01:40:30.006Z,89.70
2019-04-07T01:43:09.209Z,89.78
2019-04-07T01:45:55.669Z,89.81
2019-04-07T01:48:31.488Z,89.69
2019-04-07T01:51:01.554Z,89.71
2019-04-07T01:53:37.767Z,89.63
2019-04-07T01:56:17.383Z,89.60
2019-04-07T01:58:53.628Z,89.42
2019-04-07T02:01:40.098Z,89.27
2019-04-07T02:04:10.147Z,89.30
2019-04-07T02:06:40.208Z,89.18
2019-04-07T02:09:17.084Z,89.09
2019-04-07T02:12:03.477Z,88.93
2019-04-07T02:14:36.706Z,88.80
2019-04-07T02:17:19.967Z,88.77
2019-04-07T02:19:50.066Z,88.67
2019-04-07T02:22:23.851Z,88.43
2019-04-07T02:25:10.645Z,88.21
2019-04-07T02:27:56.880Z,87.96
2019-04-07T02:30:27.030Z,88.12
2019-04-07T02:33:00.091Z,88.14
2019-04-07T02:35:36.488Z,88.08
2019-04-07T02:38:06.668Z,88.16
2019-04-07T02:40:36.705Z,88.08
2019-04-07T02:43:19.448Z,87.39
2019-04-07T02:46:05.967Z,87.58
2019-04-07T02:48:44.830Z,87.41
2019-04-07T02:51:18.034Z,86.97
2019-04-07T02:54:04.608Z,86.80
2019-04-07T02:56:44.112Z,87.34
2019-04-07T02:59:19.985Z,87.65
2019-04-07T03:01:50.249Z,87.83
2019-04-07T03:04:37.081Z,87.98
2019-04-07T03:07:23.804Z,88.06
2019-04-07T03:10:03.116Z,88.14
2019-04-07T03:12:39.345Z,88.23
2019-04-07T03:15:16.103Z,87.97
2019-04-07T03:18:02.166Z,88.21
2019-04-07T03:20:36.027Z,88.30
2019-04-07T03:23:16.318Z,88.36
2019-04-07T03:25:52.805Z,88.04
2019-04-07T03:28:35.067Z,87.95
2019-04-07T03:31:06.238Z,88.10
2019-04-07T03:33:54.401Z,88.33
2019-04-07T03:36:29.172Z,88.30
2019-04-07T03:38:59.708Z,88.38
2019-04-07T03:41:47.841Z,87.99
2019-04-07T03:44:20.443Z,87.90
2019-04-07T03:47:07.002Z,87.98
2019-04-07T03:49:53.684Z,87.85
2019-04-07T03:52:39.399Z,87.73
2019-04-07T03:55:13.172Z,87.91
2019-04-07T03:57:46.425Z,88.21
2019-04-07T04:00:47.672Z,88.33
2019-04-07T04:03:17.814Z,88.20
2019-04-07T04:05:51.303Z,88.74
2019-04-07T04:08:26.588Z,88.85
2019-04-07T04:10:56.889Z,88.71
2019-04-07T04:13:27.970Z,88.93
2019-04-07T04:15:58.864Z,89.07
2019-04-07T04:18:28.368Z,89.26
2019-04-07T04:20:57.234Z,89.39
2019-04-07T04:23:26.127Z,89.39
2019-04-07T04:25:55.611Z,89.12
2019-04-07T04:28:24.142Z,89.11
2019-04-07T04:30:53.674Z,89.10
2019-04-07T04:33:23.374Z,89.12
2019-04-07T04:35:52.124Z,89.31
2019-04-07T04:38:20.514Z,89.42
2019-04-07T04:40:49.356Z,89.47
2019-04-07T04:43:18.058Z,89.34
2019-04-07T04:45:46.474Z,89.45
2019-04-07T04:48:15.509Z,89.74
2019-04-07T04:50:44.160Z,89.77
2019-04-07T04:53:12.663Z,89.86
2019-04-07T04:55:41.024Z,89.81
2019-04-07T04:58:09.968Z,90.20
2019-04-07T05:00:40.423Z,90.31
2019-04-07T05:03:09.799Z,90.19
2019-04-07T05:05:39.602Z,90.03
2019-04-07T05:08:08.372Z,89.84
2019-04-07T05:10:37.173Z,90.05
2019-04-07T05:13:05.607Z,90.04
2019-04-07T05:15:34.225Z,89.95
2019-04-07T05:18:02.583Z,89.84
2019-04-07T05:20:31.036Z,90.03
2019-04-07T05:22:59.810Z,90.25
2019-04-07T05:25:28.396Z,90.43
2019-04-07T05:27:57.060Z,89.85
2019-04-07T05:30:25.993Z,90.22
2019-04-07T05:32:54.561Z,90.05
2019-04-07T05:35:22.996Z,89.83
2019-04-07T05:38:01.882Z,89.81
2019-04-07T05:40:21.703Z,90.06
2019-04-07T05:42:50.835Z,90.33
2019-04-07T05:45:19.515Z,90.10
2019-04-07T05:47:50.302Z,90.12
2019-04-07T05:50:18.332Z,90.33
2019-04-07T05:52:46.743Z,90.39
2019-04-07T05:55:16.457Z,90.70
2019-04-07T05:57:45.375Z,90.03
2019-04-07T06:00:16.554Z,90.15
2019-04-07T06:02:45.589Z,90.24
2019-04-07T06:05:16.198Z,90.46
2019-04-07T06:07:44.629Z,90.47
2019-04-07T06:10:13.393Z,90.48
2019-04-07T06:12:44.924Z,90.33
2019-04-07T06:15:12.037Z,90.44
2019-04-07T06:17:41.086Z,90.54
2019-04-07T06:20:14.765Z,90.25
2019-04-07T06:22:40.476Z,90.00
2019-04-07T06:25:09.752Z,90.17
2019-04-07T06:27:38.407Z,90.35
2019-04-07T06:30:09.680Z,89.92
2019-04-07T06:32:39.529Z,90.09
2019-04-07T06:35:12.336Z,89.94
2019-04-07T06:37:39.740Z,89.86
2019-04-07T06:40:09.053Z,90.01
2019-04-07T06:42:37.640Z,89.86
2019-04-07T06:45:09.594Z,90.15
2019-04-07T06:47:39.837Z,90.04
2019-04-07T06:50:19.265Z,89.87
2019-04-07T06:53:10.577Z,89.86
2019-04-07T06:55:59.108Z,89.67
2019-04-07T06:58:39.683Z,89.64
2019-04-07T07:01:25.806Z,89.49
2019-04-07T07:04:09.273Z,89.44
2019-04-07T07:06:53.980Z,89.43
2019-04-07T07:09:26.432Z,88.36
2019-04-07T07:12:01.665Z,88.01
2019-04-07T07:14:44.665Z,87.61
2019-04-07T07:17:18.295Z,87.45
2019-04-07T07:20:02.553Z,87.42
2019-04-07T07:22:40.271Z,86.82
2019-04-07T07:25:06.978Z,86.46
2019-04-07T07:27:38.889Z,85.91
2019-04-07T07:30:07.811Z,85.55
2019-04-07T07:32:37.337Z,85.17
2019-04-07T07:35:07.961Z,84.98
2019-04-07T07:37:36.470Z,84.75
2019-04-07T07:40:07.877Z,84.80
2019-04-07T07:42:36.614Z,84.86
2019-04-07T07:45:10.913Z,84.10
2019-04-07T07:47:38.274Z,83.11
2019-04-07T07:50:08.685Z,82.61
2019-04-07T07:52:37.691Z,82.21
2019-04-07T07:55:07.197Z,82.04
2019-04-07T07:57:35.621Z,81.81
2019-04-07T08:00:07.177Z,79.99
2019-04-07T08:02:36.457Z,79.29
2019-04-07T08:05:07.213Z,78.31
2019-04-07T08:07:35.939Z,77.54
2019-04-07T08:10:07.415Z,77.38
2019-04-07T08:12:35.959Z,76.90
2019-04-07T08:15:08.110Z,77.17
2019-04-07T08:17:36.584Z,78.45
2019-04-07T08:20:07.794Z,77.02
2019-04-07T08:22:41.259Z,76.38
2019-04-07T08:25:06.943Z,77.55
2019-04-07T08:27:35.555Z,77.95
2019-04-07T08:30:09.921Z,77.76
2019-04-07T08:32:36.830Z,78.41
2019-04-07T08:35:06.900Z,78.51
2019-04-07T08:37:36.387Z,76.96
2019-04-07T08:40:07.705Z,76.32
2019-04-07T08:42:36.950Z,76.96
2019-04-07T08:45:07.123Z,76.37
2019-04-07T08:47:35.672Z,77.37
2019-04-07T08:50:06.246Z,76.52
2019-04-07T08:52:38.491Z,74.76
2019-04-07T08:55:07.325Z,74.57
2019-04-07T08:57:36.970Z,73.40
2019-04-07T09:00:14.301Z,74.14
2019-04-07T09:02:40.245Z,75.20
2019-04-07T09:05:08.786Z,75.15
2019-04-07T09:07:37.888Z,71.99
2019-04-07T09:10:08.638Z,65.15
2019-04-07T09:12:37.051Z,68.20
2019-04-07T09:15:11.516Z,68.97
2019-04-07T09:17:46.047Z,66.53
2019-04-07T09:20:31.392Z,64.67
2019-04-07T09:23:08.099Z,63.86
2019-04-07T09:25:47.286Z,63.33
2019-04-07T09:28:24.082Z,61.70
2019-04-07T09:30:54.707Z,60.08
2019-04-07T09:33:36.508Z,59.90
2019-04-07T09:36:06.680Z,58.66
2019-04-07T09:38:52.402Z,60.06
2019-04-07T09:41:27.285Z,59.85
2019-04-07T09:43:55.201Z,60.23
2019-04-07T09:46:44.804Z,58.78
2019-04-07T09:49:29.994Z,57.22
2019-04-07T09:52:02.837Z,57.75
2019-04-07T09:54:32.899Z,58.28
2019-04-07T09:57:19.139Z,57.19
2019-04-07T09:59:57.773Z,55.87
2019-04-07T10:02:34.164Z,55.97
2019-04-07T10:05:11.163Z,55.66
2019-04-07T10:07:42.570Z,56.91
2019-04-07T10:10:29.481Z,56.63
2019-04-07T10:13:13.487Z,56.77
2019-04-07T10:15:49.586Z,56.37
2019-04-07T10:18:36.854Z,56.11
2019-04-07T10:21:07.092Z,55.61
2019-04-07T10:23:40.399Z,56.33
2019-04-07T10:26:10.573Z,54.96
2019-04-07T10:28:41.957Z,55.64
2019-04-07T10:31:20.483Z,54.98
2019-04-07T10:34:02.353Z,55.06
2019-04-07T10:36:42.395Z,54.34
2019-04-07T10:39:13.010Z,53.66
2019-04-07T10:41:48.635Z,54.14
2019-04-07T10:44:35.804Z,54.16
2019-04-07T10:47:21.256Z,53.62
2019-04-07T10:50:02.234Z,53.97
2019-04-07T10:52:41.233Z,52.86
2019-04-07T10:55:17.466Z,53.28
2019-04-07T10:58:09.078Z,52.54
2019-04-07T11:00:55.801Z,52.74
2019-04-07T11:03:40.890Z,51.63
2019-04-07T11:06:16.807Z,52.88
2019-04-07T11:08:49.912Z,53.27
2019-04-07T11:11:23.167Z,52.56
2019-04-07T11:14:03.059Z,50.25
2019-04-07T11:16:45.269Z,49.34
2019-04-07T11:19:15.359Z,50.61
2019-04-07T11:21:57.461Z,50.76
2019-04-07T11:24:33.884Z,50.25
2019-04-07T11:27:06.738Z,50.92
2019-04-07T11:29:53.939Z,50.13
2019-04-07T11:32:27.128Z,50.37
2019-04-07T11:35:00.122Z,50.69
2019-04-07T11:37:32.963Z,50.38
2019-04-07T11:40:21.108Z,50.78
2019-04-07T11:42:51.091Z,51.66
2019-04-07T11:45:39.195Z,50.63
2019-04-07T11:48:10.043Z,50.53
2019-04-07T11:50:58.843Z,51.09
2019-04-07T11:53:45.866Z,51.35
2019-04-07T11:56:28.569Z,49.31
2019-04-07T11:59:01.353Z,49.66
2019-04-07T12:01:34.923Z,49.85
2019-04-07T12:04:07.943Z,49.65
2019-04-07T12:06:54.706Z,48.71
2019-04-07T12:09:41.280Z,50.59
2019-04-07T12:12:21.212Z,49.48
2019-04-07T12:15:06.304Z,49.37
2019-04-07T12:17:45.927Z,47.02
2019-04-07T12:20:19.565Z,48.10
2019-04-07T12:23:08.266Z,47.35
2019-04-07T12:25:43.982Z,49.21
2019-04-07T12:28:30.140Z,47.35
2019-04-07T12:31:00.215Z,48.24
2019-04-07T12:33:31.156Z,46.23
2019-04-07T12:36:08.290Z,43.34
2019-04-07T12:38:54.318Z,45.87
2019-04-07T12:41:31.927Z,42.60
2019-04-07T12:44:11.565Z,41.75
2019-04-07T12:46:58.345Z,40.97
2019-04-07T12:49:28.659Z,40.19
2019-04-07T12:52:13.996Z,40.54
2019-04-07T12:54:44.775Z,40.40
2019-04-07T12:57:27.223Z,39.23
2019-04-07T12:59:57.896Z,40.22
2019-04-07T13:02:28.497Z,36.97
2019-04-07T13:05:00.416Z,39.74
2019-04-07T13:07:42.485Z,38.97
2019-04-07T13:10:28.126Z,36.36
2019-04-07T13:13:01.602Z,36.22
2019-04-07T13:15:32.252Z,37.55
2019-04-07T13:18:18.888Z,36.65
2019-04-07T13:21:05.451Z,36.50
2019-04-07T13:23:36.981Z,37.37
2019-04-07T13:26:07.723Z,35.88
2019-04-07T13:28:54.508Z,34.72
2019-04-07T13:31:25.665Z,35.03
2019-04-07T13:34:12.763Z,35.33
2019-04-07T13:36:43.584Z,35.53
2019-04-07T13:39:30.349Z,35.34
2019-04-07T13:42:12.180Z,35.92
2019-04-07T13:45:01.429Z,33.89
2019-04-07T13:47:42.545Z,37.30
2019-04-07T13:50:11.577Z,38.40
2019-04-07T13:52:57.197Z,39.74
2019-04-07T13:55:28.515Z,40.69
2019-04-07T13:58:05.428Z,41.74
2019-04-07T14:00:38.490Z,41.13
2019-04-07T14:03:12.259Z,41.37
2019-04-07T14:05:49.033Z,41.27
2019-04-07T14:08:19.869Z,42.17
2019-04-07T14:11:08.414Z,40.79
2019-04-07T14:13:56.567Z,40.53
2019-04-07T14:16:26.921Z,39.25
2019-04-07T14:19:06.638Z,39.27
2019-04-07T14:21:37.426Z,34.37
2019-04-07T14:24:16.574Z,35.89
2019-04-07T14:26:49.934Z,35.00
2019-04-07T14:29:35.834Z,35.77
2019-04-07T14:32:23.151Z,36.38
2019-04-07T14:34:53.243Z,37.83
2019-04-07T14:37:41.847Z,37.38
2019-04-07T14:40:27.799Z,37.94
2019-04-07T14:43:14.687Z,37.79
2019-04-07T14:45:51.493Z,37.13
2019-04-07T14:48:37.931Z,37.91
2019-04-07T14:51:08.209Z,37.37
2019-04-07T14:56:08.019Z,39.01
2019-04-07T14:58:48.433Z,39.49
2019-04-07T15:01:22.511Z,41.10
2019-04-07T15:03:50.880Z,41.47
2019-04-07T15:06:19.448Z,40.75
2019-04-07T15:09:07.233Z,40.85
2019-04-07T15:11:41.171Z,41.22
2019-04-07T15:14:11.612Z,39.53
2019-04-07T15:16:39.766Z,39.96
2019-04-07T15:19:08.478Z,40.67
2019-04-07T15:21:37.372Z,40.19
2019-04-07T15:24:07.507Z,40.46
2019-04-07T15:26:37.015Z,39.58
2019-04-07T15:29:09.064Z,40.75
2019-04-07T15:31:37.377Z,41.30
2019-04-07T15:34:08.649Z,41.91
2019-04-07T15:36:36.437Z,43.04
2019-04-07T15:39:08.170Z,42.19
2019-04-07T15:41:37.235Z,43.28
2019-04-07T15:44:09.049Z,42.98
2019-04-07T15:46:36.629Z,42.89
2019-04-07T15:49:06.688Z,43.28
2019-04-07T15:51:36.181Z,44.33
2019-04-07T15:54:04.703Z,44.09
2019-04-07T15:56:33.671Z,45.12
2019-04-07T15:59:02.375Z,44.63
2019-04-07T16:01:31.514Z,45.57
2019-04-07T16:03:59.979Z,43.99
2019-04-07T16:06:28.478Z,43.19
2019-04-07T16:08:58.843Z,43.16
2019-04-07T16:11:29.324Z,43.90
2019-04-07T16:13:57.230Z,43.32
2019-04-07T16:16:28.476Z,44.04
2019-04-07T16:18:55.788Z,43.70
2019-04-07T16:21:24.197Z,43.86
2019-04-07T16:23:54.045Z,43.20
2019-04-07T16:26:22.756Z,43.97
2019-04-07T16:28:51.967Z,44.86
2019-04-07T16:31:24.294Z,45.12
2019-04-07T16:33:50.767Z,45.19
2019-04-07T16:36:19.651Z,45.08
2019-04-07T16:38:48.137Z,45.19
2019-04-07T16:41:16.750Z,45.17
2019-04-07T16:43:45.858Z,44.93
2019-04-07T16:46:20.196Z,44.99
2019-04-07T16:48:45.119Z,45.03
2019-04-07T16:51:13.562Z,44.48
2019-04-07T16:53:43.107Z,44.91
2019-04-07T16:56:12.142Z,44.15
2019-04-07T16:58:41.543Z,44.95
2019-04-07T17:01:10.841Z,44.42
2019-04-07T17:03:39.799Z,44.48
2019-04-07T17:06:11.060Z,44.82
2019-04-07T17:08:39.115Z,45.56
2019-04-07T17:11:08.145Z,46.22
2019-04-07T17:13:41.070Z,46.37
2019-04-07T17:16:10.119Z,46.71
2019-04-07T17:18:39.283Z,47.97
2019-04-07T17:21:15.055Z,48.56
2019-04-07T17:23:43.594Z,47.60
2019-04-07T17:26:12.141Z,49.25
2019-04-07T17:28:44.627Z,48.98
2019-04-07T17:31:11.833Z,49.52
2019-04-07T17:33:41.415Z,49.04
2019-04-07T17:36:10.098Z,49.35
2019-04-07T17:38:56.773Z,50.21
2019-04-07T17:41:25.210Z,50.14
2019-04-07T17:44:15.322Z,50.20
2019-04-07T17:46:49.162Z,50.31
2019-04-07T17:49:31.007Z,50.59
2019-04-07T17:52:12.720Z,50.58
2019-04-07T17:54:46.370Z,50.68
2019-04-07T17:57:16.557Z,51.11
2019-04-07T17:59:55.484Z,51.02
2019-04-07T18:02:34.933Z,52.38
2019-04-07T18:05:13.031Z,51.84
2019-04-07T18:07:59.397Z,52.00
2019-04-07T18:10:39.153Z,53.08
2019-04-07T18:13:09.220Z,52.31
2019-04-07T18:15:48.761Z,52.45
2019-04-07T18:18:28.272Z,53.39
2019-04-07T18:20:58.397Z,53.47
2019-04-07T18:23:36.644Z,53.53
2019-04-07T18:26:08.771Z,54.18
2019-04-07T18:28:50.894Z,53.34
2019-04-07T18:31:33.637Z,54.82
2019-04-07T18:34:05.765Z,56.00
2019-04-07T18:36:52.239Z,57.01
2019-04-07T18:39:38.475Z,56.03
2019-04-07T18:42:13.661Z,55.79
2019-04-07T18:44:43.217Z,56.70
2019-04-07T18:47:23.963Z,56.99
2019-04-07T18:50:06.484Z,57.78
2019-04-07T18:52:44.594Z,58.13
2019-04-07T18:55:18.152Z,57.78
2019-04-07T18:58:04.748Z,58.97
2019-04-07T19:00:48.252Z,59.92
2019-04-07T19:03:20.523Z,61.18
2019-04-07T19:06:08.681Z,60.13
2019-04-07T19:08:52.728Z,61.43
2019-04-07T19:11:26.134Z,61.58
2019-04-07T19:14:21.847Z,61.31
2019-04-07T19:16:38.298Z,61.67
2019-04-07T19:19:08.374Z,62.71
2019-04-07T19:21:38.926Z,62.58
2019-04-07T19:24:25.072Z,61.85
2019-04-07T19:27:05.669Z,63.17
2019-04-07T19:29:43.040Z,64.09
2019-04-07T19:32:23.518Z,64.37
2019-04-07T19:35:11.540Z,65.14
2019-04-07T19:37:50.706Z,65.42
2019-04-07T19:40:20.940Z,66.86
2019-04-07T19:42:52.054Z,67.12
2019-04-07T19:45:30.960Z,66.93
2019-04-07T19:48:07.097Z,66.78
2019-04-07T19:50:35.826Z,66.47
2019-04-07T19:53:13.688Z,66.02
2019-04-07T19:55:46.519Z,65.94
2019-04-07T19:58:22.442Z,66.15
2019-04-07T20:01:08.726Z,66.60
2019-04-07T20:03:57.239Z,66.86
2019-04-07T20:06:42.608Z,67.49
2019-04-07T20:09:21.622Z,67.94
2019-04-07T20:11:54.836Z,67.81
2019-04-07T20:14:25.039Z,69.09
2019-04-07T20:16:55.618Z,67.92
2019-04-07T20:19:27.448Z,68.18
2019-04-07T20:22:04.762Z,68.16
2019-04-07T20:24:38.055Z,67.98
2019-04-07T20:27:26.926Z,67.44
2019-04-07T20:30:03.899Z,67.09
2019-04-07T20:32:37.388Z,67.33
2019-04-07T20:35:18.770Z,67.10
2019-04-07T20:38:06.206Z,67.12
2019-04-07T20:40:39.616Z,67.85
2019-04-07T20:43:08.947Z,68.47
2019-04-07T20:45:41.751Z,68.73
2019-04-07T20:48:14.750Z,68.98
2019-04-07T20:50:50.900Z,69.63
2019-04-07T20:53:26.401Z,69.54
2019-04-07T20:55:58.266Z,68.59
2019-04-07T20:58:54.922Z,68.73
2019-04-07T21:01:33.290Z,69.45
2019-04-07T21:04:12.878Z,70.83
2019-04-07T21:06:48.518Z,70.69
2019-04-07T21:09:31.600Z,70.95
2019-04-07T21:12:02.979Z,71.01
2019-04-07T21:14:45.354Z,71.91
2019-04-07T21:17:31.614Z,71.72
2019-04-07T21:20:18.623Z,70.73
2019-04-07T21:22:54.817Z,71.60
2019-04-07T21:25:26.362Z,71.09
2019-04-07T21:28:00.061Z,71.75
2019-04-07T21:30:36.775Z,72.25
2019-04-07T21:33:07.824Z,72.05
2019-04-07T21:35:43.414Z,72.82
2019-04-07T21:38:21.234Z,73.76
2019-04-07T21:41:04.516Z,73.79
2019-04-07T21:43:40.598Z,73.60
2019-04-07T21:46:20.179Z,72.96
2019-04-07T21:49:00.885Z,73.50
2019-04-07T21:51:48.369Z,73.84
2019-04-07T21:54:22.634Z,73.89
2019-04-07T21:57:14.037Z,74.01
2019-04-07T21:59:50.022Z,73.90
2019-04-07T22:02:40.586Z,74.70
2019-04-07T22:05:13.602Z,73.66
2019-04-07T22:08:04.445Z,74.46
2019-04-07T22:10:28.739Z,74.26
2019-04-07T22:13:01.806Z,74.61
2019-04-07T22:15:35.077Z,74.18
2019-04-07T22:17:58.334Z,73.96
2019-04-07T22:20:27.763Z,74.53
2019-04-07T22:22:59.117Z,74.51
2019-04-07T22:25:31.368Z,74.88
2019-04-07T22:27:59.892Z,75.27
2019-04-07T22:30:28.365Z,75.13
2019-04-07T22:32:56.855Z,75.42
2019-04-07T22:35:25.284Z,75.60
2019-04-07T22:37:54.659Z,76.01
2019-04-07T22:40:23.675Z,75.10
2019-04-07T22:42:52.223Z,75.50
2019-04-07T22:45:25.272Z,75.47
2019-04-07T22:47:52.383Z,75.31
2019-04-07T22:50:21.258Z,75.64
2019-04-07T22:52:50.891Z,75.76
2019-04-07T22:55:19.554Z,76.27
2019-04-07T22:57:48.405Z,76.46
2019-04-07T23:00:21.866Z,76.62
2019-04-07T23:02:50.362Z,76.72
2019-04-07T23:05:19.109Z,76.88
2019-04-07T23:07:48.068Z,77.24
2019-04-07T23:10:17.941Z,76.08
2019-04-07T23:12:46.340Z,76.49
2019-04-07T23:15:15.195Z,76.70
2019-04-07T23:17:43.583Z,76.99
2019-04-07T23:20:13.100Z,76.81
2019-04-07T23:22:42.442Z,77.03
2019-04-07T23:25:12.015Z,76.49
2019-04-07T23:27:40.460Z,76.28
2019-04-07T23:30:11.046Z,77.27
2019-04-07T23:32:39.725Z,77.15
2019-04-07T23:35:08.351Z,76.44
2019-04-07T23:37:37.001Z,77.08
2019-04-07T23:40:07.019Z,76.34
2019-04-07T23:42:36.198Z,77.06
2019-04-07T23:45:08.230Z,77.41
2019-04-07T23:47:36.724Z,77.53
2019-04-07T23:50:09.133Z,76.95
2019-04-07T23:52:37.659Z,76.67
2019-04-07T23:55:06.465Z,77.48
2019-04-07T23:57:35.988Z,77.96
